sensor_id;sensor_type;location;lat;lon;timestamp;P1;durP1;ratioP1;P2;durP2;ratioP2
41261;SDS011;29629;52.532;13.352;2022-10-16T00:00:29;9.35;;;8.30;;
41261;SDS011;29629;52.532;13.352;2022-10-16T00:02:56;16.13;;;9.95;;
41261;SDS011;29629;52.532;13.352;2022-10-16T00:05:23;15.68;;;10.00;;
41261;SDS011;29629;52.532;13.352;2022-10-16T00:07:51;8.88;;;8.02;;
41261;SDS011;29629;52.532;13.352;2022-10-16T00:10:18;8.30;;;7.00;;
41261;SDS011;29629;52.532;13.352;2022-10-16T00:12:45;16.38;;;8.85;;
41261;SDS011;29629;52.532;13.352;2022-10-16T00:15:11;21.20;;;10.88;;
41261;SDS011;29629;52.532;13.352;2022-10-16T00:17:38;7.03;;;6.43;;
41261;SDS011;29629;52.532;13.352;2022-10-16T00:20:06;18.10;;;8.25;;
41261;SDS011;29629;52.532;13.352;2022-10-16T00:22:33;17.98;;;10.70;;
41261;SDS011;29629;52.532;13.352;2022-10-16T00:25:01;10.27;;;7.82;;
41261;SDS011;29629;52.532;13.352;2022-10-16T00:27:28;15.10;;;9.27;;
41261;SDS011;29629;52.532;13.352;2022-10-16T00:29:55;23.48;;;9.38;;
41261;SDS011;29629;52.532;13.352;2022-10-16T00:32:22;16.80;;;8.43;;
41261;SDS011;29629;52.532;13.352;2022-10-16T00:34:49;15.32;;;8.15;;
41261;SDS011;29629;52.532;13.352;2022-10-16T00:37:15;22.00;;;10.57;;
41261;SDS011;29629;52.532;13.352;2022-10-16T00:39:42;21.10;;;9.90;;
41261;SDS011;29629;52.532;13.352;2022-10-16T00:42:11;21.27;;;9.80;;
41261;SDS011;29629;52.532;13.352;2022-10-16T00:44:42;7.68;;;6.95;;
41261;SDS011;29629;52.532;13.352;2022-10-16T00:47:11;18.25;;;8.68;;
41261;SDS011;29629;52.532;13.352;2022-10-16T00:49:43;16.77;;;9.80;;
41261;SDS011;29629;52.532;13.352;2022-10-16T00:52:10;16.75;;;9.27;;
41261;SDS011;29629;52.532;13.352;2022-10-16T00:54:37;16.35;;;8.88;;
41261;SDS011;29629;52.532;13.352;2022-10-16T00:57:05;6.88;;;5.15;;
41261;SDS011;29629;52.532;13.352;2022-10-16T00:59:34;17.00;;;8.57;;
41261;SDS011;29629;52.532;13.352;2022-10-16T01:02:06;16.38;;;7.22;;
41261;SDS011;29629;52.532;13.352;2022-10-16T01:04:37;16.88;;;9.18;;
41261;SDS011;29629;52.532;13.352;2022-10-16T01:07:06;20.25;;;10.88;;
41261;SDS011;29629;52.532;13.352;2022-10-16T01:09:44;18.48;;;9.55;;
41261;SDS011;29629;52.532;13.352;2022-10-16T01:12:18;19.27;;;10.50;;
41261;SDS011;29629;52.532;13.352;2022-10-16T01:14:55;16.83;;;9.45;;
41261;SDS011;29629;52.532;13.352;2022-10-16T01:17:27;16.73;;;9.65;;
41261;SDS011;29629;52.532;13.352;2022-10-16T01:20:07;17.75;;;9.13;;
41261;SDS011;29629;52.532;13.352;2022-10-16T01:22:48;17.27;;;10.15;;
41261;SDS011;29629;52.532;13.352;2022-10-16T01:25:32;20.88;;;10.48;;
41261;SDS011;29629;52.532;13.352;2022-10-16T01:28:11;16.52;;;10.70;;
41261;SDS011;29629;52.532;13.352;2022-10-16T01:30:40;16.85;;;8.82;;
41261;SDS011;29629;52.532;13.352;2022-10-16T01:33:12;17.92;;;8.98;;
41261;SDS011;29629;52.532;13.352;2022-10-16T01:35:45;20.10;;;9.20;;
41261;SDS011;29629;52.532;13.352;2022-10-16T01:38:17;15.07;;;8.93;;
41261;SDS011;29629;52.532;13.352;2022-10-16T01:40:48;14.90;;;6.65;;
41261;SDS011;29629;52.532;13.352;2022-10-16T01:43:18;16.55;;;9.65;;
41261;SDS011;29629;52.532;13.352;2022-10-16T01:45:50;16.02;;;9.70;;
41261;SDS011;29629;52.532;13.352;2022-10-16T01:48:18;9.80;;;8.95;;
41261;SDS011;29629;52.532;13.352;2022-10-16T01:50:49;22.38;;;8.95;;
41261;SDS011;29629;52.532;13.352;2022-10-16T01:53:23;21.25;;;8.65;;
41261;SDS011;29629;52.532;13.352;2022-10-16T01:55:51;17.35;;;9.43;;
41261;SDS011;29629;52.532;13.352;2022-10-16T01:58:21;19.75;;;11.75;;
41261;SDS011;29629;52.532;13.352;2022-10-16T02:00:50;16.73;;;10.75;;
41261;SDS011;29629;52.532;13.352;2022-10-16T02:03:19;20.95;;;9.85;;
41261;SDS011;29629;52.532;13.352;2022-10-16T02:05:47;20.30;;;9.75;;
41261;SDS011;29629;52.532;13.352;2022-10-16T02:08:17;17.85;;;9.27;;
41261;SDS011;29629;52.532;13.352;2022-10-16T02:10:44;16.08;;;10.32;;
41261;SDS011;29629;52.532;13.352;2022-10-16T02:13:12;8.75;;;8.00;;
41261;SDS011;29629;52.532;13.352;2022-10-16T02:15:44;18.50;;;10.48;;
41261;SDS011;29629;52.532;13.352;2022-10-16T02:18:11;18.08;;;10.77;;
41261;SDS011;29629;52.532;13.352;2022-10-16T02:20:40;14.45;;;10.55;;
41261;SDS011;29629;52.532;13.352;2022-10-16T02:23:12;23.63;;;11.95;;
41261;SDS011;29629;52.532;13.352;2022-10-16T02:25:45;24.02;;;11.68;;
41261;SDS011;29629;52.532;13.352;2022-10-16T02:28:16;17.50;;;10.32;;
41261;SDS011;29629;52.532;13.352;2022-10-16T02:30:48;15.35;;;8.80;;
41261;SDS011;29629;52.532;13.352;2022-10-16T02:33:17;16.65;;;8.70;;
41261;SDS011;29629;52.532;13.352;2022-10-16T02:35:47;20.23;;;9.00;;
41261;SDS011;29629;52.532;13.352;2022-10-16T02:38:16;17.90;;;9.88;;
41261;SDS011;29629;52.532;13.352;2022-10-16T02:40:45;19.95;;;8.65;;
41261;SDS011;29629;52.532;13.352;2022-10-16T02:43:12;19.25;;;11.00;;
41261;SDS011;29629;52.532;13.352;2022-10-16T02:45:39;18.30;;;14.27;;
41261;SDS011;29629;52.532;13.352;2022-10-16T02:48:07;20.00;;;12.88;;
41261;SDS011;29629;52.532;13.352;2022-10-16T02:50:34;12.88;;;10.90;;
41261;SDS011;29629;52.532;13.352;2022-10-16T02:53:01;15.80;;;12.48;;
41261;SDS011;29629;52.532;13.352;2022-10-16T02:55:28;27.30;;;14.38;;
41261;SDS011;29629;52.532;13.352;2022-10-16T02:57:55;12.43;;;10.57;;
41261;SDS011;29629;52.532;13.352;2022-10-16T03:00:22;16.70;;;11.30;;
41261;SDS011;29629;52.532;13.352;2022-10-16T03:02:49;18.80;;;12.57;;
41261;SDS011;29629;52.532;13.352;2022-10-16T03:05:17;16.42;;;11.20;;
41261;SDS011;29629;52.532;13.352;2022-10-16T03:07:44;18.73;;;13.68;;
41261;SDS011;29629;52.532;13.352;2022-10-16T03:10:11;17.65;;;11.98;;
41261;SDS011;29629;52.532;13.352;2022-10-16T03:12:38;22.67;;;14.07;;
41261;SDS011;29629;52.532;13.352;2022-10-16T03:15:05;19.45;;;14.73;;
41261;SDS011;29629;52.532;13.352;2022-10-16T03:17:32;26.35;;;16.67;;
41261;SDS011;29629;52.532;13.352;2022-10-16T03:19:59;19.02;;;15.52;;
41261;SDS011;29629;52.532;13.352;2022-10-16T03:22:28;17.77;;;13.80;;
41261;SDS011;29629;52.532;13.352;2022-10-16T03:24:54;16.67;;;11.98;;
41261;SDS011;29629;52.532;13.352;2022-10-16T03:27:21;20.38;;;13.15;;
41261;SDS011;29629;52.532;13.352;2022-10-16T03:29:48;16.70;;;12.38;;
41261;SDS011;29629;52.532;13.352;2022-10-16T03:32:15;20.15;;;14.38;;
41261;SDS011;29629;52.532;13.352;2022-10-16T03:34:41;17.80;;;14.20;;
41261;SDS011;29629;52.532;13.352;2022-10-16T03:37:08;20.42;;;13.23;;
41261;SDS011;29629;52.532;13.352;2022-10-16T03:39:37;29.40;;;15.85;;
41261;SDS011;29629;52.532;13.352;2022-10-16T03:42:04;17.40;;;12.88;;
41261;SDS011;29629;52.532;13.352;2022-10-16T03:44:30;17.13;;;13.23;;
41261;SDS011;29629;52.532;13.352;2022-10-16T03:46:57;16.52;;;12.80;;
41261;SDS011;29629;52.532;13.352;2022-10-16T03:49:24;24.33;;;12.77;;
41261;SDS011;29629;52.532;13.352;2022-10-16T03:51:51;17.33;;;9.95;;
41261;SDS011;29629;52.532;13.352;2022-10-16T03:54:17;19.45;;;10.73;;
41261;SDS011;29629;52.532;13.352;2022-10-16T03:56:45;10.60;;;9.57;;
41261;SDS011;29629;52.532;13.352;2022-10-16T03:59:12;18.27;;;11.93;;
41261;SDS011;29629;52.532;13.352;2022-10-16T04:01:40;15.95;;;11.27;;
41261;SDS011;29629;52.532;13.352;2022-10-16T04:04:07;13.93;;;10.55;;
41261;SDS011;29629;52.532;13.352;2022-10-16T04:06:33;16.67;;;11.23;;
41261;SDS011;29629;52.532;13.352;2022-10-16T04:09:00;16.38;;;10.15;;
41261;SDS011;29629;52.532;13.352;2022-10-16T04:11:27;26.75;;;10.93;;
41261;SDS011;29629;52.532;13.352;2022-10-16T04:13:55;33.88;;;13.93;;
41261;SDS011;29629;52.532;13.352;2022-10-16T04:16:22;16.00;;;9.40;;
41261;SDS011;29629;52.532;13.352;2022-10-16T04:18:48;18.88;;;10.07;;
41261;SDS011;29629;52.532;13.352;2022-10-16T04:21:15;21.52;;;10.35;;
41261;SDS011;29629;52.532;13.352;2022-10-16T04:23:42;16.80;;;9.77;;
41261;SDS011;29629;52.532;13.352;2022-10-16T04:26:09;17.05;;;10.65;;
41261;SDS011;29629;52.532;13.352;2022-10-16T04:28:36;17.33;;;9.88;;
41261;SDS011;29629;52.532;13.352;2022-10-16T04:31:04;20.42;;;11.57;;
41261;SDS011;29629;52.532;13.352;2022-10-16T04:33:31;16.02;;;9.90;;
41261;SDS011;29629;52.532;13.352;2022-10-16T04:35:59;17.92;;;10.73;;
41261;SDS011;29629;52.532;13.352;2022-10-16T04:38:27;18.67;;;12.55;;
41261;SDS011;29629;52.532;13.352;2022-10-16T04:40:54;20.60;;;13.75;;
41261;SDS011;29629;52.532;13.352;2022-10-16T04:43:21;18.77;;;11.45;;
41261;SDS011;29629;52.532;13.352;2022-10-16T04:45:48;19.45;;;10.65;;
41261;SDS011;29629;52.532;13.352;2022-10-16T04:48:17;15.60;;;10.38;;
41261;SDS011;29629;52.532;13.352;2022-10-16T04:50:44;19.02;;;12.93;;
41261;SDS011;29629;52.532;13.352;2022-10-16T04:53:10;17.35;;;12.93;;
41261;SDS011;29629;52.532;13.352;2022-10-16T04:55:37;26.48;;;14.88;;
41261;SDS011;29629;52.532;13.352;2022-10-16T04:58:04;12.23;;;11.00;;
41261;SDS011;29629;52.532;13.352;2022-10-16T05:00:31;20.30;;;12.00;;
41261;SDS011;29629;52.532;13.352;2022-10-16T05:02:58;19.92;;;12.50;;
41261;SDS011;29629;52.532;13.352;2022-10-16T05:05:27;21.30;;;11.38;;
41261;SDS011;29629;52.532;13.352;2022-10-16T05:07:54;10.65;;;9.75;;
41261;SDS011;29629;52.532;13.352;2022-10-16T05:10:20;21.75;;;13.05;;
41261;SDS011;29629;52.532;13.352;2022-10-16T05:12:47;19.13;;;12.00;;
41261;SDS011;29629;52.532;13.352;2022-10-16T05:15:14;20.58;;;12.70;;
41261;SDS011;29629;52.532;13.352;2022-10-16T05:17:41;11.50;;;10.60;;
41261;SDS011;29629;52.532;13.352;2022-10-16T05:20:08;18.00;;;13.43;;
41261;SDS011;29629;52.532;13.352;2022-10-16T05:22:36;15.52;;;11.80;;
41261;SDS011;29629;52.532;13.352;2022-10-16T05:25:04;18.65;;;12.82;;
41261;SDS011;29629;52.532;13.352;2022-10-16T05:27:31;24.02;;;13.73;;
41261;SDS011;29629;52.532;13.352;2022-10-16T05:29:58;20.40;;;13.73;;
41261;SDS011;29629;52.532;13.352;2022-10-16T05:32:24;20.50;;;14.18;;
41261;SDS011;29629;52.532;13.352;2022-10-16T05:34:51;20.92;;;12.98;;
41261;SDS011;29629;52.532;13.352;2022-10-16T05:37:18;26.20;;;15.82;;
41261;SDS011;29629;52.532;13.352;2022-10-16T05:39:46;20.42;;;14.30;;
41261;SDS011;29629;52.532;13.352;2022-10-16T05:42:12;17.33;;;14.80;;
41261;SDS011;29629;52.532;13.352;2022-10-16T05:44:39;15.65;;;11.60;;
41261;SDS011;29629;52.532;13.352;2022-10-16T05:47:06;19.02;;;14.65;;
41261;SDS011;29629;52.532;13.352;2022-10-16T05:49:33;17.70;;;15.63;;
41261;SDS011;29629;52.532;13.352;2022-10-16T05:51:59;19.65;;;14.45;;
41261;SDS011;29629;52.532;13.352;2022-10-16T05:54:26;19.42;;;15.95;;
41261;SDS011;29629;52.532;13.352;2022-10-16T05:56:54;19.92;;;14.77;;
41261;SDS011;29629;52.532;13.352;2022-10-16T05:59:21;16.00;;;11.57;;
41261;SDS011;29629;52.532;13.352;2022-10-16T06:01:48;18.33;;;12.80;;
41261;SDS011;29629;52.532;13.352;2022-10-16T06:04:14;16.63;;;12.15;;
41261;SDS011;29629;52.532;13.352;2022-10-16T06:06:41;21.60;;;16.15;;
41261;SDS011;29629;52.532;13.352;2022-10-16T06:09:08;20.10;;;15.85;;
41261;SDS011;29629;52.532;13.352;2022-10-16T06:11:35;28.63;;;16.00;;
41261;SDS011;29629;52.532;13.352;2022-10-16T06:14:04;16.05;;;14.73;;
41261;SDS011;29629;52.532;13.352;2022-10-16T06:16:32;15.68;;;14.43;;
41261;SDS011;29629;52.532;13.352;2022-10-16T06:18:59;23.40;;;19.90;;
41261;SDS011;29629;52.532;13.352;2022-10-16T06:21:27;18.48;;;16.92;;
41261;SDS011;29629;52.532;13.352;2022-10-16T06:23:55;32.83;;;23.35;;
41261;SDS011;29629;52.532;13.352;2022-10-16T06:26:23;27.23;;;22.08;;
41261;SDS011;29629;52.532;13.352;2022-10-16T06:28:50;22.25;;;20.25;;
41261;SDS011;29629;52.532;13.352;2022-10-16T06:31:19;21.73;;;20.52;;
41261;SDS011;29629;52.532;13.352;2022-10-16T06:33:49;30.77;;;25.17;;
41261;SDS011;29629;52.532;13.352;2022-10-16T06:36:16;22.30;;;19.77;;
41261;SDS011;29629;52.532;13.352;2022-10-16T06:38:44;25.80;;;23.52;;
41261;SDS011;29629;52.532;13.352;2022-10-16T06:41:11;24.88;;;22.40;;
41261;SDS011;29629;52.532;13.352;2022-10-16T06:43:39;30.33;;;21.27;;
41261;SDS011;29629;52.532;13.352;2022-10-16T06:46:07;22.02;;;18.90;;
41261;SDS011;29629;52.532;13.352;2022-10-16T06:48:38;31.55;;;23.45;;
41261;SDS011;29629;52.532;13.352;2022-10-16T06:51:05;25.23;;;22.75;;
41261;SDS011;29629;52.532;13.352;2022-10-16T06:53:35;36.58;;;25.83;;
41261;SDS011;29629;52.532;13.352;2022-10-16T06:56:06;27.55;;;22.15;;
41261;SDS011;29629;52.532;13.352;2022-10-16T06:58:34;27.13;;;24.77;;
41261;SDS011;29629;52.532;13.352;2022-10-16T07:01:00;19.95;;;18.00;;
41261;SDS011;29629;52.532;13.352;2022-10-16T07:03:27;23.83;;;21.23;;
41261;SDS011;29629;52.532;13.352;2022-10-16T07:05:55;19.77;;;17.48;;
41261;SDS011;29629;52.532;13.352;2022-10-16T07:08:22;22.15;;;19.80;;
41261;SDS011;29629;52.532;13.352;2022-10-16T07:10:57;26.00;;;22.25;;
41261;SDS011;29629;52.532;13.352;2022-10-16T07:13:24;24.35;;;18.10;;
41261;SDS011;29629;52.532;13.352;2022-10-16T07:15:51;19.52;;;15.63;;
41261;SDS011;29629;52.532;13.352;2022-10-16T07:18:18;27.88;;;19.85;;
41261;SDS011;29629;52.532;13.352;2022-10-16T07:20:44;19.77;;;16.77;;
41261;SDS011;29629;52.532;13.352;2022-10-16T07:23:12;24.38;;;22.67;;
41261;SDS011;29629;52.532;13.352;2022-10-16T07:25:39;28.45;;;23.67;;
41261;SDS011;29629;52.532;13.352;2022-10-16T07:28:06;30.30;;;27.67;;
41261;SDS011;29629;52.532;13.352;2022-10-16T07:30:34;32.85;;;30.13;;
41261;SDS011;29629;52.532;13.352;2022-10-16T07:33:02;31.85;;;28.95;;
41261;SDS011;29629;52.532;13.352;2022-10-16T07:35:29;36.22;;;32.97;;
41261;SDS011;29629;52.532;13.352;2022-10-16T07:37:55;31.10;;;28.38;;
41261;SDS011;29629;52.532;13.352;2022-10-16T07:40:23;36.92;;;34.25;;
41261;SDS011;29629;52.532;13.352;2022-10-16T07:42:52;34.35;;;31.88;;
41261;SDS011;29629;52.532;13.352;2022-10-16T07:45:18;33.80;;;30.88;;
41261;SDS011;29629;52.532;13.352;2022-10-16T07:47:45;30.55;;;27.95;;
41261;SDS011;29629;52.532;13.352;2022-10-16T07:50:12;32.92;;;30.50;;
41261;SDS011;29629;52.532;13.352;2022-10-16T07:52:39;33.10;;;30.58;;
41261;SDS011;29629;52.532;13.352;2022-10-16T07:55:06;29.42;;;27.10;;
41261;SDS011;29629;52.532;13.352;2022-10-16T07:57:34;34.00;;;30.63;;
41261;SDS011;29629;52.532;13.352;2022-10-16T08:00:01;29.42;;;26.75;;
41261;SDS011;29629;52.532;13.352;2022-10-16T08:02:29;23.52;;;16.98;;
41261;SDS011;29629;52.532;13.352;2022-10-16T08:04:55;19.70;;;17.52;;
41261;SDS011;29629;52.532;13.352;2022-10-16T08:07:22;27.25;;;20.42;;
41261;SDS011;29629;52.532;13.352;2022-10-16T08:09:49;29.90;;;27.63;;
41261;SDS011;29629;52.532;13.352;2022-10-16T08:12:16;34.70;;;32.08;;
41261;SDS011;29629;52.532;13.352;2022-10-16T08:14:44;31.95;;;29.27;;
41261;SDS011;29629;52.532;13.352;2022-10-16T08:17:13;34.95;;;32.35;;
41261;SDS011;29629;52.532;13.352;2022-10-16T08:19:40;33.58;;;30.35;;
41261;SDS011;29629;52.532;13.352;2022-10-16T08:22:10;24.23;;;22.70;;
41261;SDS011;29629;52.532;13.352;2022-10-16T08:24:37;22.63;;;20.52;;
41261;SDS011;29629;52.532;13.352;2022-10-16T08:27:04;30.27;;;27.55;;
41261;SDS011;29629;52.532;13.352;2022-10-16T08:29:31;29.42;;;27.02;;
41261;SDS011;29629;52.532;13.352;2022-10-16T08:31:59;19.80;;;18.08;;
41261;SDS011;29629;52.532;13.352;2022-10-16T08:34:26;19.27;;;17.45;;
41261;SDS011;29629;52.532;13.352;2022-10-16T08:36:53;30.98;;;29.23;;
41261;SDS011;29629;52.532;13.352;2022-10-16T08:39:20;30.17;;;27.50;;
41261;SDS011;29629;52.532;13.352;2022-10-16T08:44:51;31.33;;;28.83;;
41261;SDS011;29629;52.532;13.352;2022-10-16T08:47:44;37.90;;;34.92;;
41261;SDS011;29629;52.532;13.352;2022-10-16T08:50:23;32.75;;;29.63;;
41261;SDS011;29629;52.532;13.352;2022-10-16T08:52:52;46.75;;;43.80;;
41261;SDS011;29629;52.532;13.352;2022-10-16T08:55:30;61.42;;;57.25;;
41261;SDS011;29629;52.532;13.352;2022-10-16T08:58:01;65.72;;;61.72;;
41261;SDS011;29629;52.532;13.352;2022-10-16T09:00:28;51.30;;;47.63;;
41261;SDS011;29629;52.532;13.352;2022-10-16T09:02:59;76.32;;;72.28;;
41261;SDS011;29629;52.532;13.352;2022-10-16T09:08:28;107.95;;;102.50;;
41261;SDS011;29629;52.532;13.352;2022-10-16T09:11:02;214.93;;;205.40;;
41261;SDS011;29629;52.532;13.352;2022-10-16T09:13:36;199.55;;;190.10;;
41261;SDS011;29629;52.532;13.352;2022-10-16T09:16:12;172.65;;;164.63;;
41261;SDS011;29629;52.532;13.352;2022-10-16T09:18:45;218.25;;;208.93;;
41261;SDS011;29629;52.532;13.352;2022-10-16T09:21:19;233.68;;;224.07;;
41261;SDS011;29629;52.532;13.352;2022-10-16T09:23:49;248.23;;;237.27;;
41261;SDS011;29629;52.532;13.352;2022-10-16T09:26:17;310.85;;;298.85;;
41261;SDS011;29629;52.532;13.352;2022-10-16T09:28:46;288.42;;;277.27;;
41261;SDS011;29629;52.532;13.352;2022-10-16T09:31:15;321.77;;;309.23;;
41261;SDS011;29629;52.532;13.352;2022-10-16T09:33:47;343.77;;;330.20;;
41261;SDS011;29629;52.532;13.352;2022-10-16T09:36:16;346.75;;;332.00;;
41261;SDS011;29629;52.532;13.352;2022-10-16T09:38:43;224.60;;;213.23;;
41261;SDS011;29629;52.532;13.352;2022-10-16T09:41:13;211.43;;;200.15;;
41261;SDS011;29629;52.532;13.352;2022-10-16T09:43:46;161.45;;;151.43;;
41261;SDS011;29629;52.532;13.352;2022-10-16T09:46:22;120.03;;;113.20;;
41261;SDS011;29629;52.532;13.352;2022-10-16T09:48:53;172.48;;;162.75;;
41261;SDS011;29629;52.532;13.352;2022-10-16T09:51:23;254.00;;;242.05;;
41261;SDS011;29629;52.532;13.352;2022-10-16T09:53:54;256.58;;;245.48;;
41261;SDS011;29629;52.532;13.352;2022-10-16T09:56:22;234.85;;;224.80;;
41261;SDS011;29629;52.532;13.352;2022-10-16T09:58:51;243.30;;;233.18;;
41261;SDS011;29629;52.532;13.352;2022-10-16T10:01:18;209.82;;;198.98;;
41261;SDS011;29629;52.532;13.352;2022-10-16T10:03:46;93.93;;;87.05;;
41261;SDS011;29629;52.532;13.352;2022-10-16T10:06:20;57.83;;;53.40;;
41261;SDS011;29629;52.532;13.352;2022-10-16T10:08:56;12.50;;;11.23;;
41261;SDS011;29629;52.532;13.352;2022-10-16T10:11:37;80.00;;;74.65;;
41261;SDS011;29629;52.532;13.352;2022-10-16T10:14:06;132.43;;;123.82;;
41261;SDS011;29629;52.532;13.352;2022-10-16T10:16:41;203.20;;;191.65;;
41261;SDS011;29629;52.532;13.352;2022-10-16T10:19:09;232.23;;;220.10;;
41261;SDS011;29629;52.532;13.352;2022-10-16T10:21:42;224.82;;;212.68;;
41261;SDS011;29629;52.532;13.352;2022-10-16T10:24:10;227.95;;;216.38;;
41261;SDS011;29629;52.532;13.352;2022-10-16T10:26:38;237.95;;;226.38;;
41261;SDS011;29629;52.532;13.352;2022-10-16T10:29:09;286.83;;;274.77;;
41261;SDS011;29629;52.532;13.352;2022-10-16T10:31:46;293.98;;;280.75;;
41261;SDS011;29629;52.532;13.352;2022-10-16T10:34:22;270.35;;;259.38;;
41261;SDS011;29629;52.532;13.352;2022-10-16T10:37:04;279.85;;;268.52;;
41261;SDS011;29629;52.532;13.352;2022-10-16T10:39:42;268.02;;;256.75;;
41261;SDS011;29629;52.532;13.352;2022-10-16T10:42:18;241.15;;;231.23;;
41261;SDS011;29629;52.532;13.352;2022-10-16T10:44:57;217.02;;;207.07;;
41261;SDS011;29629;52.532;13.352;2022-10-16T10:47:42;199.60;;;188.75;;
41261;SDS011;29629;52.532;13.352;2022-10-16T10:50:18;212.70;;;202.27;;
41261;SDS011;29629;52.532;13.352;2022-10-16T10:52:53;230.32;;;218.77;;
41261;SDS011;29629;52.532;13.352;2022-10-16T10:55:27;185.05;;;174.85;;
41261;SDS011;29629;52.532;13.352;2022-10-16T11:01:16;93.30;;;87.80;;
41261;SDS011;29629;52.532;13.352;2022-10-16T11:03:55;107.65;;;99.63;;
41261;SDS011;29629;52.532;13.352;2022-10-16T11:06:35;27.67;;;24.98;;
41261;SDS011;29629;52.532;13.352;2022-10-16T11:09:09;82.68;;;76.95;;
41261;SDS011;29629;52.532;13.352;2022-10-16T11:11:40;141.75;;;131.68;;
41261;SDS011;29629;52.532;13.352;2022-10-16T11:14:13;242.95;;;230.77;;
41261;SDS011;29629;52.532;13.352;2022-10-16T11:16:46;281.08;;;268.55;;
41261;SDS011;29629;52.532;13.352;2022-10-16T11:19:19;260.13;;;247.57;;
41261;SDS011;29629;52.532;13.352;2022-10-16T11:21:55;199.77;;;189.45;;
41261;SDS011;29629;52.532;13.352;2022-10-16T11:24:32;191.25;;;181.50;;
41261;SDS011;29629;52.532;13.352;2022-10-16T11:27:07;193.27;;;183.68;;
41261;SDS011;29629;52.532;13.352;2022-10-16T11:29:40;193.07;;;182.05;;
41261;SDS011;29629;52.532;13.352;2022-10-16T11:32:15;191.23;;;181.95;;
41261;SDS011;29629;52.532;13.352;2022-10-16T11:37:18;132.50;;;123.65;;
41261;SDS011;29629;52.532;13.352;2022-10-16T11:39:50;213.30;;;201.60;;
41261;SDS011;29629;52.532;13.352;2022-10-16T11:42:22;210.75;;;199.63;;
41261;SDS011;29629;52.532;13.352;2022-10-16T11:44:57;238.30;;;226.95;;
41261;SDS011;29629;52.532;13.352;2022-10-16T11:47:34;208.52;;;197.60;;
41261;SDS011;29629;52.532;13.352;2022-10-16T11:50:06;225.25;;;213.93;;
41261;SDS011;29629;52.532;13.352;2022-10-16T11:52:51;264.95;;;252.88;;
41261;SDS011;29629;52.532;13.352;2022-10-16T11:55:28;218.10;;;207.35;;
41261;SDS011;29629;52.532;13.352;2022-10-16T11:57:59;216.05;;;206.05;;
41261;SDS011;29629;52.532;13.352;2022-10-16T12:00:33;257.08;;;245.52;;
41261;SDS011;29629;52.532;13.352;2022-10-16T12:03:08;269.33;;;257.67;;
41261;SDS011;29629;52.532;13.352;2022-10-16T12:05:49;251.10;;;238.98;;
41261;SDS011;29629;52.532;13.352;2022-10-16T12:08:23;253.77;;;242.95;;
41261;SDS011;29629;52.532;13.352;2022-10-16T12:10:52;221.23;;;210.02;;
41261;SDS011;29629;52.532;13.352;2022-10-16T12:13:30;225.38;;;213.65;;
41261;SDS011;29629;52.532;13.352;2022-10-16T12:18:49;163.75;;;153.90;;
41261;SDS011;29629;52.532;13.352;2022-10-16T12:21:35;136.65;;;128.35;;
41261;SDS011;29629;52.532;13.352;2022-10-16T12:24:02;87.72;;;81.40;;
41261;SDS011;29629;52.532;13.352;2022-10-16T12:26:32;75.38;;;69.88;;
41261;SDS011;29629;52.532;13.352;2022-10-16T12:29:11;254.85;;;240.90;;
41261;SDS011;29629;52.532;13.352;2022-10-16T12:31:43;207.15;;;194.15;;
41261;SDS011;29629;52.532;13.352;2022-10-16T12:34:23;254.63;;;241.82;;
41261;SDS011;29629;52.532;13.352;2022-10-16T12:36:53;173.82;;;163.40;;
41261;SDS011;29629;52.532;13.352;2022-10-16T12:39:21;184.10;;;173.10;;
41261;SDS011;29629;52.532;13.352;2022-10-16T12:42:01;203.30;;;191.35;;
41261;SDS011;29629;52.532;13.352;2022-10-16T12:44:33;180.32;;;169.95;;
41261;SDS011;29629;52.532;13.352;2022-10-16T12:47:01;223.93;;;211.23;;
41261;SDS011;29629;52.532;13.352;2022-10-16T12:49:29;171.73;;;160.95;;
41261;SDS011;29629;52.532;13.352;2022-10-16T12:51:58;159.40;;;150.38;;
41261;SDS011;29629;52.532;13.352;2022-10-16T12:54:27;115.13;;;107.65;;
41261;SDS011;29629;52.532;13.352;2022-10-16T12:57:04;126.28;;;117.90;;
41261;SDS011;29629;52.532;13.352;2022-10-16T12:59:46;124.72;;;115.75;;
41261;SDS011;29629;52.532;13.352;2022-10-16T13:02:22;127.40;;;119.20;;
41261;SDS011;29629;52.532;13.352;2022-10-16T13:05:14;137.25;;;128.85;;
41261;SDS011;29629;52.532;13.352;2022-10-16T13:07:53;219.88;;;208.30;;
41261;SDS011;29629;52.532;13.352;2022-10-16T13:10:28;181.63;;;171.93;;
41261;SDS011;29629;52.532;13.352;2022-10-16T13:13:07;192.43;;;182.55;;
41261;SDS011;29629;52.532;13.352;2022-10-16T13:15:50;205.32;;;193.25;;
41261;SDS011;29629;52.532;13.352;2022-10-16T13:18:25;192.68;;;181.70;;
41261;SDS011;29629;52.532;13.352;2022-10-16T13:21:08;240.55;;;229.05;;
41261;SDS011;29629;52.532;13.352;2022-10-16T13:23:49;225.65;;;213.90;;
41261;SDS011;29629;52.532;13.352;2022-10-16T13:26:23;205.75;;;196.00;;
41261;SDS011;29629;52.532;13.352;2022-10-16T13:28:59;200.75;;;190.75;;
41261;SDS011;29629;52.532;13.352;2022-10-16T13:31:27;206.57;;;195.98;;
41261;SDS011;29629;52.532;13.352;2022-10-16T13:33:55;202.15;;;191.15;;
41261;SDS011;29629;52.532;13.352;2022-10-16T13:36:25;196.60;;;186.02;;
41261;SDS011;29629;52.532;13.352;2022-10-16T13:39:00;190.13;;;181.88;;
41261;SDS011;29629;52.532;13.352;2022-10-16T13:41:35;188.38;;;179.63;;
41261;SDS011;29629;52.532;13.352;2022-10-16T13:44:04;194.52;;;184.77;;
41261;SDS011;29629;52.532;13.352;2022-10-16T13:46:34;192.23;;;183.60;;
41261;SDS011;29629;52.532;13.352;2022-10-16T13:49:02;197.95;;;189.02;;
41261;SDS011;29629;52.532;13.352;2022-10-16T13:51:30;192.82;;;183.88;;
41261;SDS011;29629;52.532;13.352;2022-10-16T13:53:59;190.45;;;180.63;;
41261;SDS011;29629;52.532;13.352;2022-10-16T13:56:26;194.80;;;185.05;;
41261;SDS011;29629;52.532;13.352;2022-10-16T13:58:58;160.63;;;152.73;;
41261;SDS011;29629;52.532;13.352;2022-10-16T14:01:27;149.65;;;142.68;;
41261;SDS011;29629;52.532;13.352;2022-10-16T14:04:00;149.55;;;140.38;;
41261;SDS011;29629;52.532;13.352;2022-10-16T14:06:29;145.88;;;139.20;;
41261;SDS011;29629;52.532;13.352;2022-10-16T14:08:58;141.23;;;133.85;;
41261;SDS011;29629;52.532;13.352;2022-10-16T14:11:27;160.18;;;152.32;;
41261;SDS011;29629;52.532;13.352;2022-10-16T14:13:54;218.93;;;207.38;;
41261;SDS011;29629;52.532;13.352;2022-10-16T14:16:22;216.30;;;206.48;;
41261;SDS011;29629;52.532;13.352;2022-10-16T14:18:54;168.30;;;160.55;;
41261;SDS011;29629;52.532;13.352;2022-10-16T14:21:23;123.15;;;116.90;;
41261;SDS011;29629;52.532;13.352;2022-10-16T14:23:51;149.65;;;140.18;;
41261;SDS011;29629;52.532;13.352;2022-10-16T14:26:20;145.40;;;138.60;;
41261;SDS011;29629;52.532;13.352;2022-10-16T14:29:00;161.13;;;153.40;;
41261;SDS011;29629;52.532;13.352;2022-10-16T14:31:31;158.63;;;151.07;;
41261;SDS011;29629;52.532;13.352;2022-10-16T14:34:02;147.25;;;137.43;;